sensor_id;sensor_type;location;lat;lon;timestamp;P1;P2;P0
74078;PMS5003;62437;51.544;-3.276;2022-12-07T00:01:39;15;15;
74078;PMS5003;62437;51.544;-3.276;2022-12-07T00:04:05;13;9;
74078;PMS5003;62437;51.544;-3.276;2022-12-07T00:06:31;9;9;
74078;PMS5003;62437;51.544;-3.276;2022-12-07T00:08:56;9;8;
74078;PMS5003;62437;51.544;-3.276;2022-12-07T00:11:22;12;11;
74078;PMS5003;62437;51.544;-3.276;2022-12-07T00:13:46;12;10;
74078;PMS5003;62437;51.544;-3.276;2022-12-07T00:16:13;14;12;
74078;PMS5003;62437;51.544;-3.276;2022-12-07T00:18:37;13;12;
74078;PMS5003;62437;51.544;-3.276;2022-12-07T00:21:04;14;13;
74078;PMS5003;62437;51.544;-3.276;2022-12-07T00:23:28;18;14;
74078;PMS5003;62437;51.544;-3.276;2022-12-07T00:25:54;15;15;
74078;PMS5003;62437;51.544;-3.276;2022-12-07T00:28:19;9;8;
74078;PMS5003;62437;51.544;-3.276;2022-12-07T00:30:45;9;8;
74078;PMS5003;62437;51.544;-3.276;2022-12-07T00:33:11;12;9;
74078;PMS5003;62437;51.544;-3.276;2022-12-07T00:35:35;9;9;
74078;PMS5003;62437;51.544;-3.276;2022-12-07T00:38:01;8;8;
74078;PMS5003;62437;51.544;-3.276;2022-12-07T00:40:26;6;6;
74078;PMS5003;62437;51.544;-3.276;2022-12-07T00:42:52;9;8;
74078;PMS5003;62437;51.544;-3.276;2022-12-07T00:45:17;7;7;
74078;PMS5003;62437;51.544;-3.276;2022-12-07T00:47:43;6;6;
74078;PMS5003;62437;51.544;-3.276;2022-12-07T00:50:08;6;6;
74078;PMS5003;62437;51.544;-3.276;2022-12-07T00:52:33;6;6;
74078;PMS5003;62437;51.544;-3.276;2022-12-07T00:54:59;6;6;
74078;PMS5003;62437;51.544;-3.276;2022-12-07T00:57:25;6;4;
74078;PMS5003;62437;51.544;-3.276;2022-12-07T00:59:50;9;8;
74078;PMS5003;62437;51.544;-3.276;2022-12-07T01:02:16;6;4;
74078;PMS5003;62437;51.544;-3.276;2022-12-07T01:04:41;7;7;
74078;PMS5003;62437;51.544;-3.276;2022-12-07T01:07:07;4;3;
74078;PMS5003;62437;51.544;-3.276;2022-12-07T01:09:33;3;3;
74078;PMS5003;62437;51.544;-3.276;2022-12-07T01:11:58;6;6;
74078;PMS5003;62437;51.544;-3.276;2022-12-07T01:14:23;6;6;
74078;PMS5003;62437;51.544;-3.276;2022-12-07T01:16:49;6;6;
74078;PMS5003;62437;51.544;-3.276;2022-12-07T01:19:14;8;7;
74078;PMS5003;62437;51.544;-3.276;2022-12-07T01:21:40;7;7;
74078;PMS5003;62437;51.544;-3.276;2022-12-07T01:24:06;7;7;
74078;PMS5003;62437;51.544;-3.276;2022-12-07T01:26:31;8;7;
74078;PMS5003;62437;51.544;-3.276;2022-12-07T01:28:56;7;4;
74078;PMS5003;62437;51.544;-3.276;2022-12-07T01:31:22;6;6;
74078;PMS5003;62437;51.544;-3.276;2022-12-07T01:33:47;4;4;
74078;PMS5003;62437;51.544;-3.276;2022-12-07T01:36:14;7;7;
74078;PMS5003;62437;51.544;-3.276;2022-12-07T01:38:38;6;4;
74078;PMS5003;62437;51.544;-3.276;2022-12-07T01:41:03;9;9;
74078;PMS5003;62437;51.544;-3.276;2022-12-07T01:43:29;7;6;
74078;PMS5003;62437;51.544;-3.276;2022-12-07T01:45:54;7;7;
74078;PMS5003;62437;51.544;-3.276;2022-12-07T01:48:20;6;6;
74078;PMS5003;62437;51.544;-3.276;2022-12-07T01:50:45;8;7;
74078;PMS5003;62437;51.544;-3.276;2022-12-07T01:53:10;4;4;
74078;PMS5003;62437;51.544;-3.276;2022-12-07T01:55:37;8;7;
74078;PMS5003;62437;51.544;-3.276;2022-12-07T01:58:01;6;6;
74078;PMS5003;62437;51.544;-3.276;2022-12-07T02:00:26;7;6;
74078;PMS5003;62437;51.544;-3.276;2022-12-07T02:02:54;7;7;
74078;PMS5003;62437;51.544;-3.276;2022-12-07T02:05:17;6;6;
74078;PMS5003;62437;51.544;-3.276;2022-12-07T02:07:43;8;7;
74078;PMS5003;62437;51.544;-3.276;2022-12-07T02:10:13;7;7;
74078;PMS5003;62437;51.544;-3.276;2022-12-07T02:12:34;6;4;
74078;PMS5003;62437;51.544;-3.276;2022-12-07T02:14:59;8;6;
74078;PMS5003;62437;51.544;-3.276;2022-12-07T02:17:26;6;6;
74078;PMS5003;62437;51.544;-3.276;2022-12-07T02:20:00;7;6;
74078;PMS5003;62437;51.544;-3.276;2022-12-07T02:22:22;4;4;
74078;PMS5003;62437;51.544;-3.276;2022-12-07T02:24:47;9;6;
74078;PMS5003;62437;51.544;-3.276;2022-12-07T02:27:12;6;4;
74078;PMS5003;62437;51.544;-3.276;2022-12-07T02:29:33;6;4;
74078;PMS5003;62437;51.544;-3.276;2022-12-07T02:32:00;8;7;
74078;PMS5003;62437;51.544;-3.276;2022-12-07T02:34:26;8;7;
74078;PMS5003;62437;51.544;-3.276;2022-12-07T02:36:51;8;8;
74078;PMS5003;62437;51.544;-3.276;2022-12-07T02:39:15;8;7;
74078;PMS5003;62437;51.544;-3.276;2022-12-07T02:41:40;12;12;
74078;PMS5003;62437;51.544;-3.276;2022-12-07T02:44:06;8;8;
74078;PMS5003;62437;51.544;-3.276;2022-12-07T02:46:31;4;4;
74078;PMS5003;62437;51.544;-3.276;2022-12-07T02:48:57;9;8;
74078;PMS5003;62437;51.544;-3.276;2022-12-07T02:51:22;8;7;
74078;PMS5003;62437;51.544;-3.276;2022-12-07T02:53:48;10;10;
74078;PMS5003;62437;51.544;-3.276;2022-12-07T02:56:13;6;5;
74078;PMS5003;62437;51.544;-3.276;2022-12-07T02:58:42;7;6;
74078;PMS5003;62437;51.544;-3.276;2022-12-07T03:01:07;10;7;
74078;PMS5003;62437;51.544;-3.276;2022-12-07T03:03:30;8;7;
74078;PMS5003;62437;51.544;-3.276;2022-12-07T03:05:59;7;7;
74078;PMS5003;62437;51.544;-3.276;2022-12-07T03:08:21;7;7;
74078;PMS5003;62437;51.544;-3.276;2022-12-07T03:10:48;8;7;
74078;PMS5003;62437;51.544;-3.276;2022-12-07T03:13:12;3;3;
74078;PMS5003;62437;51.544;-3.276;2022-12-07T03:15:39;11;9;
74078;PMS5003;62437;51.544;-3.276;2022-12-07T03:18:02;6;6;
74078;PMS5003;62437;51.544;-3.276;2022-12-07T03:20:28;4;4;
74078;PMS5003;62437;51.544;-3.276;2022-12-07T03:22:53;6;6;
74078;PMS5003;62437;51.544;-3.276;2022-12-07T03:25:19;8;6;
74078;PMS5003;62437;51.544;-3.276;2022-12-07T03:27:44;4;4;
74078;PMS5003;62437;51.544;-3.276;2022-12-07T03:30:10;6;4;
74078;PMS5003;62437;51.544;-3.276;2022-12-07T03:32:35;6;6;
74078;PMS5003;62437;51.544;-3.276;2022-12-07T03:35:02;7;6;
74078;PMS5003;62437;51.544;-3.276;2022-12-07T03:37:26;7;5;
74078;PMS5003;62437;51.544;-3.276;2022-12-07T03:39:54;3;3;
74078;PMS5003;62437;51.544;-3.276;2022-12-07T03:42:16;9;7;
74078;PMS5003;62437;51.544;-3.276;2022-12-07T03:44:42;6;4;
74078;PMS5003;62437;51.544;-3.276;2022-12-07T03:47:09;6;5;
74078;PMS5003;62437;51.544;-3.276;2022-12-07T03:49:36;4;3;
74078;PMS5003;62437;51.544;-3.276;2022-12-07T03:52:00;4;4;
74078;PMS5003;62437;51.544;-3.276;2022-12-07T03:54:26;6;6;
74078;PMS5003;62437;51.544;-3.276;2022-12-07T03:56:49;7;7;
74078;PMS5003;62437;51.544;-3.276;2022-12-07T03:59:16;5;5;
74078;PMS5003;62437;51.544;-3.276;2022-12-07T04:01:41;6;6;
74078;PMS5003;62437;51.544;-3.276;2022-12-07T04:04:06;5;5;
74078;PMS5003;62437;51.544;-3.276;2022-12-07T04:06:31;6;6;
74078;PMS5003;62437;51.544;-3.276;2022-12-07T04:08:57;6;6;
74078;PMS5003;62437;51.544;-3.276;2022-12-07T04:11:23;6;5;
74078;PMS5003;62437;51.544;-3.276;2022-12-07T04:13:48;8;6;
74078;PMS5003;62437;51.544;-3.276;2022-12-07T04:16:13;2;2;
74078;PMS5003;62437;51.544;-3.276;2022-12-07T04:18:39;7;7;
74078;PMS5003;62437;51.544;-3.276;2022-12-07T04:21:04;4;4;
74078;PMS5003;62437;51.544;-3.276;2022-12-07T04:23:30;5;5;
74078;PMS5003;62437;51.544;-3.276;2022-12-07T04:25:55;6;6;
74078;PMS5003;62437;51.544;-3.276;2022-12-07T04:28:21;4;3;
74078;PMS5003;62437;51.544;-3.276;2022-12-07T04:30:46;8;8;
74078;PMS5003;62437;51.544;-3.276;2022-12-07T04:33:11;12;8;
74078;PMS5003;62437;51.544;-3.276;2022-12-07T04:35:37;8;8;
74078;PMS5003;62437;51.544;-3.276;2022-12-07T04:38:03;10;8;
74078;PMS5003;62437;51.544;-3.276;2022-12-07T04:40:28;8;7;
74078;PMS5003;62437;51.544;-3.276;2022-12-07T04:42:54;6;6;
74078;PMS5003;62437;51.544;-3.276;2022-12-07T04:45:19;8;8;
74078;PMS5003;62437;51.544;-3.276;2022-12-07T04:47:44;7;6;
74078;PMS5003;62437;51.544;-3.276;2022-12-07T04:50:10;8;7;
74078;PMS5003;62437;51.544;-3.276;2022-12-07T04:52:36;8;8;
74078;PMS5003;62437;51.544;-3.276;2022-12-07T04:55:02;8;8;
74078;PMS5003;62437;51.544;-3.276;2022-12-07T04:57:27;12;10;
74078;PMS5003;62437;51.544;-3.276;2022-12-07T04:59:53;8;8;
74078;PMS5003;62437;51.544;-3.276;2022-12-07T05:02:18;5;5;
74078;PMS5003;62437;51.544;-3.276;2022-12-07T05:04:44;7;7;
74078;PMS5003;62437;51.544;-3.276;2022-12-07T05:07:09;10;8;
74078;PMS5003;62437;51.544;-3.276;2022-12-07T05:09:35;10;8;
74078;PMS5003;62437;51.544;-3.276;2022-12-07T05:12:00;8;7;
74078;PMS5003;62437;51.544;-3.276;2022-12-07T05:14:26;8;7;
74078;PMS5003;62437;51.544;-3.276;2022-12-07T05:16:51;7;7;
74078;PMS5003;62437;51.544;-3.276;2022-12-07T05:19:17;7;7;
74078;PMS5003;62437;51.544;-3.276;2022-12-07T05:21:42;12;11;
74078;PMS5003;62437;51.544;-3.276;2022-12-07T05:24:09;10;8;
74078;PMS5003;62437;51.544;-3.276;2022-12-07T05:26:33;7;7;
74078;PMS5003;62437;51.544;-3.276;2022-12-07T05:28:58;8;8;
74078;PMS5003;62437;51.544;-3.276;2022-12-07T05:31:24;11;8;
74078;PMS5003;62437;51.544;-3.276;2022-12-07T05:33:49;7;7;
74078;PMS5003;62437;51.544;-3.276;2022-12-07T05:36:15;10;8;
74078;PMS5003;62437;51.544;-3.276;2022-12-07T05:38:41;7;7;
74078;PMS5003;62437;51.544;-3.276;2022-12-07T05:41:06;7;7;
74078;PMS5003;62437;51.544;-3.276;2022-12-07T05:43:32;5;5;
74078;PMS5003;62437;51.544;-3.276;2022-12-07T05:45:57;7;7;
74078;PMS5003;62437;51.544;-3.276;2022-12-07T05:48:23;7;7;
74078;PMS5003;62437;51.544;-3.276;2022-12-07T05:50:47;7;7;
74078;PMS5003;62437;51.544;-3.276;2022-12-07T05:53:13;7;7;
74078;PMS5003;62437;51.544;-3.276;2022-12-07T05:55:38;5;5;
74078;PMS5003;62437;51.544;-3.276;2022-12-07T05:58:04;8;7;
74078;PMS5003;62437;51.544;-3.276;2022-12-07T06:00:29;8;8;
74078;PMS5003;62437;51.544;-3.276;2022-12-07T06:02:55;10;10;
74078;PMS5003;62437;51.544;-3.276;2022-12-07T06:05:20;8;8;
74078;PMS5003;62437;51.544;-3.276;2022-12-07T06:07:46;10;8;
74078;PMS5003;62437;51.544;-3.276;2022-12-07T06:10:11;11;7;
74078;PMS5003;62437;51.544;-3.276;2022-12-07T06:12:37;7;7;
74078;PMS5003;62437;51.544;-3.276;2022-12-07T06:15:02;8;8;
74078;PMS5003;62437;51.544;-3.276;2022-12-07T06:17:28;3;3;
74078;PMS5003;62437;51.544;-3.276;2022-12-07T06:19:53;7;7;
74078;PMS5003;62437;51.544;-3.276;2022-12-07T06:22:19;6;6;
74078;PMS5003;62437;51.544;-3.276;2022-12-07T06:24:44;7;7;
74078;PMS5003;62437;51.544;-3.276;2022-12-07T06:27:10;7;7;
74078;PMS5003;62437;51.544;-3.276;2022-12-07T06:29:35;8;8;
74078;PMS5003;62437;51.544;-3.276;2022-12-07T06:32:00;3;3;
74078;PMS5003;62437;51.544;-3.276;2022-12-07T06:34:26;10;8;
74078;PMS5003;62437;51.544;-3.276;2022-12-07T06:36:51;7;7;
74078;PMS5003;62437;51.544;-3.276;2022-12-07T06:39:16;10;10;
74078;PMS5003;62437;51.544;-3.276;2022-12-07T06:41:42;10;8;
74078;PMS5003;62437;51.544;-3.276;2022-12-07T06:44:07;6;6;
74078;PMS5003;62437;51.544;-3.276;2022-12-07T06:46:33;8;8;
74078;PMS5003;62437;51.544;-3.276;2022-12-07T06:48:58;6;5;
74078;PMS5003;62437;51.544;-3.276;2022-12-07T06:51:24;8;8;
74078;PMS5003;62437;51.544;-3.276;2022-12-07T06:53:49;13;11;
74078;PMS5003;62437;51.544;-3.276;2022-12-07T06:56:14;6;6;
74078;PMS5003;62437;51.544;-3.276;2022-12-07T06:58:40;5;5;
74078;PMS5003;62437;51.544;-3.276;2022-12-07T07:01:08;13;11;
74078;PMS5003;62437;51.544;-3.276;2022-12-07T07:03:31;6;5;
74078;PMS5003;62437;51.544;-3.276;2022-12-07T07:05:57;7;7;
74078;PMS5003;62437;51.544;-3.276;2022-12-07T07:08:22;8;7;
74078;PMS5003;62437;51.544;-3.276;2022-12-07T07:10:48;12;11;
74078;PMS5003;62437;51.544;-3.276;2022-12-07T07:13:14;10;10;
74078;PMS5003;62437;51.544;-3.276;2022-12-07T07:15:39;7;7;
74078;PMS5003;62437;51.544;-3.276;2022-12-07T07:18:05;6;6;
74078;PMS5003;62437;51.544;-3.276;2022-12-07T07:20:30;10;10;
74078;PMS5003;62437;51.544;-3.276;2022-12-07T07:22:56;7;6;
74078;PMS5003;62437;51.544;-3.276;2022-12-07T07:25:22;8;8;
74078;PMS5003;62437;51.544;-3.276;2022-12-07T07:27:47;11;10;
74078;PMS5003;62437;51.544;-3.276;2022-12-07T07:30:13;8;8;
74078;PMS5003;62437;51.544;-3.276;2022-12-07T07:32:38;7;7;
74078;PMS5003;62437;51.544;-3.276;2022-12-07T07:35:04;8;7;
74078;PMS5003;62437;51.544;-3.276;2022-12-07T07:37:29;8;8;
74078;PMS5003;62437;51.544;-3.276;2022-12-07T07:39:55;8;7;
74078;PMS5003;62437;51.544;-3.276;2022-12-07T07:42:20;11;10;
74078;PMS5003;62437;51.544;-3.276;2022-12-07T07:44:46;16;14;
74078;PMS5003;62437;51.544;-3.276;2022-12-07T07:47:11;7;7;
74078;PMS5003;62437;51.544;-3.276;2022-12-07T07:49:37;10;10;
74078;PMS5003;62437;51.544;-3.276;2022-12-07T07:52:02;11;10;
74078;PMS5003;62437;51.544;-3.276;2022-12-07T07:54:28;12;11;
74078;PMS5003;62437;51.544;-3.276;2022-12-07T07:56:53;12;11;
74078;PMS5003;62437;51.544;-3.276;2022-12-07T07:59:18;8;7;
74078;PMS5003;62437;51.544;-3.276;2022-12-07T08:01:44;11;8;
74078;PMS5003;62437;51.544;-3.276;2022-12-07T08:04:09;11;11;
74078;PMS5003;62437;51.544;-3.276;2022-12-07T08:06:34;12;11;
74078;PMS5003;62437;51.544;-3.276;2022-12-07T08:09:00;11;11;
74078;PMS5003;62437;51.544;-3.276;2022-12-07T08:11:26;15;12;
74078;PMS5003;62437;51.544;-3.276;2022-12-07T08:13:51;7;7;
74078;PMS5003;62437;51.544;-3.276;2022-12-07T08:16:17;11;10;
74078;PMS5003;62437;51.544;-3.276;2022-12-07T08:18:42;11;11;
74078;PMS5003;62437;51.544;-3.276;2022-12-07T08:21:09;17;14;
74078;PMS5003;62437;51.544;-3.276;2022-12-07T08:23:33;11;11;
74078;PMS5003;62437;51.544;-3.276;2022-12-07T08:25:59;14;12;
74078;PMS5003;62437;51.544;-3.276;2022-12-07T08:28:24;10;10;
74078;PMS5003;62437;51.544;-3.276;2022-12-07T08:30:49;12;11;
74078;PMS5003;62437;51.544;-3.276;2022-12-07T08:33:15;7;7;
74078;PMS5003;62437;51.544;-3.276;2022-12-07T08:35:40;11;10;
74078;PMS5003;62437;51.544;-3.276;2022-12-07T08:38:06;14;12;
74078;PMS5003;62437;51.544;-3.276;2022-12-07T08:40:31;10;10;
74078;PMS5003;62437;51.544;-3.276;2022-12-07T08:42:57;10;8;
74078;PMS5003;62437;51.544;-3.276;2022-12-07T08:45:22;15;15;
74078;PMS5003;62437;51.544;-3.276;2022-12-07T08:47:48;15;11;
74078;PMS5003;62437;51.544;-3.276;2022-12-07T08:50:12;12;11;
74078;PMS5003;62437;51.544;-3.276;2022-12-07T08:52:38;16;15;
74078;PMS5003;62437;51.544;-3.276;2022-12-07T08:55:03;15;15;
74078;PMS5003;62437;51.544;-3.276;2022-12-07T08:57:28;11;11;
74078;PMS5003;62437;51.544;-3.276;2022-12-07T08:59:53;13;13;
74078;PMS5003;62437;51.544;-3.276;2022-12-07T09:02:19;12;12;
74078;PMS5003;62437;51.544;-3.276;2022-12-07T09:04:44;12;12;
74078;PMS5003;62437;51.544;-3.276;2022-12-07T09:07:10;12;12;
74078;PMS5003;62437;51.544;-3.276;2022-12-07T09:09:36;21;17;
74078;PMS5003;62437;51.544;-3.276;2022-12-07T09:12:02;8;8;
74078;PMS5003;62437;51.544;-3.276;2022-12-07T09:14:26;16;15;
74078;PMS5003;62437;51.544;-3.276;2022-12-07T09:16:52;15;13;
74078;PMS5003;62437;51.544;-3.276;2022-12-07T09:19:17;15;12;
74078;PMS5003;62437;51.544;-3.276;2022-12-07T09:21:43;15;15;
74078;PMS5003;62437;51.544;-3.276;2022-12-07T09:24:09;21;20;
74078;PMS5003;62437;51.544;-3.276;2022-12-07T09:26:34;15;15;
74078;PMS5003;62437;51.544;-3.276;2022-12-07T09:28:59;28;28;
74078;PMS5003;62437;51.544;-3.276;2022-12-07T09:31:25;21;20;
74078;PMS5003;62437;51.544;-3.276;2022-12-07T09:33:54;25;22;
74078;PMS5003;62437;51.544;-3.276;2022-12-07T09:36:16;26;25;
74078;PMS5003;62437;51.544;-3.276;2022-12-07T09:38:42;26;25;
74078;PMS5003;62437;51.544;-3.276;2022-12-07T09:41:07;24;22;
74078;PMS5003;62437;51.544;-3.276;2022-12-07T09:43:33;19;17;
74078;PMS5003;62437;51.544;-3.276;2022-12-07T09:45:58;25;24;
74078;PMS5003;62437;51.544;-3.276;2022-12-07T09:48:25;20;20;
74078;PMS5003;62437;51.544;-3.276;2022-12-07T09:50:57;22;21;
74078;PMS5003;62437;51.544;-3.276;2022-12-07T09:53:15;27;26;
74078;PMS5003;62437;51.544;-3.276;2022-12-07T09:55:41;27;26;
74078;PMS5003;62437;51.544;-3.276;2022-12-07T09:58:08;23;22;
74078;PMS5003;62437;51.544;-3.276;2022-12-07T10:00:32;25;23;
74078;PMS5003;62437;51.544;-3.276;2022-12-07T10:02:58;25;22;
74078;PMS5003;62437;51.544;-3.276;2022-12-07T10:05:24;28;26;
74078;PMS5003;62437;51.544;-3.276;2022-12-07T10:07:48;26;25;
74078;PMS5003;62437;51.544;-3.276;2022-12-07T10:10:15;23;22;
74078;PMS5003;62437;51.544;-3.276;2022-12-07T10:15:05;25;22;
74078;PMS5003;62437;51.544;-3.276;2022-12-07T10:17:32;25;25;
74078;PMS5003;62437;51.544;-3.276;2022-12-07T10:22:21;28;27;
74078;PMS5003;62437;51.544;-3.276;2022-12-07T10:24:47;31;28;
74078;PMS5003;62437;51.544;-3.276;2022-12-07T10:27:18;31;29;
74078;PMS5003;62437;51.544;-3.276;2022-12-07T10:29:38;27;24;
74078;PMS5003;62437;51.544;-3.276;2022-12-07T10:32:04;24;23;
74078;PMS5003;62437;51.544;-3.276;2022-12-07T10:34:29;26;24;
74078;PMS5003;62437;51.544;-3.276;2022-12-07T10:36:55;28;24;
74078;PMS5003;62437;51.544;-3.276;2022-12-07T10:39:20;24;22;
74078;PMS5003;62437;51.544;-3.276;2022-12-07T10:41:53;22;21;
74078;PMS5003;62437;51.544;-3.276;2022-12-07T10:44:10;31;27;
74078;PMS5003;62437;51.544;-3.276;2022-12-07T10:49:03;28;25;
74078;PMS5003;62437;51.544;-3.276;2022-12-07T10:51:27;23;22;
74078;PMS5003;62437;51.544;-3.276;2022-12-07T10:53:54;27;27;
74078;PMS5003;62437;51.544;-3.276;2022-12-07T10:56:23;21;19;
74078;PMS5003;62437;51.544;-3.276;2022-12-07T10:58:47;29;25;
74078;PMS5003;62437;51.544;-3.276;2022-12-07T11:01:10;23;23;
74078;PMS5003;62437;51.544;-3.276;2022-12-07T11:03:37;20;19;
74078;PMS5003;62437;51.544;-3.276;2022-12-07T11:06:01;25;23;
74078;PMS5003;62437;51.544;-3.276;2022-12-07T11:08:31;25;22;
74078;PMS5003;62437;51.544;-3.276;2022-12-07T11:10:52;35;31;
74078;PMS5003;62437;51.544;-3.276;2022-12-07T11:13:21;28;27;
74078;PMS5003;62437;51.544;-3.276;2022-12-07T11:15:46;28;28;
74078;PMS5003;62437;51.544;-3.276;2022-12-07T11:18:10;28;25;
74078;PMS5003;62437;51.544;-3.276;2022-12-07T11:20:37;27;24;
74078;PMS5003;62437;51.544;-3.276;2022-12-07T11:23:00;35;30;
74078;PMS5003;62437;51.544;-3.276;2022-12-07T11:25:25;28;27;
74078;PMS5003;62437;51.544;-3.276;2022-12-07T11:27:55;19;18;
74078;PMS5003;62437;51.544;-3.276;2022-12-07T11:30:17;31;26;
74078;PMS5003;62437;51.544;-3.276;2022-12-07T11:32:45;24;24;
74078;PMS5003;62437;51.544;-3.276;2022-12-07T11:35:08;30;28;
74078;PMS5003;62437;51.544;-3.276;2022-12-07T11:37:32;30;29;
74078;PMS5003;62437;51.544;-3.276;2022-12-07T11:39:59;24;23;
74078;PMS5003;62437;51.544;-3.276;2022-12-07T11:42:22;25;25;
74078;PMS5003;62437;51.544;-3.276;2022-12-07T11:44:49;26;25;
74078;PMS5003;62437;51.544;-3.276;2022-12-07T11:47:13;29;26;
74078;PMS5003;62437;51.544;-3.276;2022-12-07T11:49:40;37;33;
74078;PMS5003;62437;51.544;-3.276;2022-12-07T11:52:04;26;24;
74078;PMS5003;62437;51.544;-3.276;2022-12-07T11:54:30;35;32;
74078;PMS5003;62437;51.544;-3.276;2022-12-07T11:56:55;26;25;
74078;PMS5003;62437;51.544;-3.276;2022-12-07T11:59:22;30;30;
74078;PMS5003;62437;51.544;-3.276;2022-12-07T12:01:50;25;25;
74078;PMS5003;62437;51.544;-3.276;2022-12-07T12:04:18;24;23;
74078;PMS5003;62437;51.544;-3.276;2022-12-07T12:06:37;20;19;
74078;PMS5003;62437;51.544;-3.276;2022-12-07T12:09:03;26;24;
74078;PMS5003;62437;51.544;-3.276;2022-12-07T12:11:33;21;20;
74078;PMS5003;62437;51.544;-3.276;2022-12-07T12:13:58;25;20;
74078;PMS5003;62437;51.544;-3.276;2022-12-07T12:16:25;24;22;
74078;PMS5003;62437;51.544;-3.276;2022-12-07T12:18:48;26;25;
74078;PMS5003;62437;51.544;-3.276;2022-12-07T12:21:09;20;19;
74078;PMS5003;62437;51.544;-3.276;2022-12-07T12:23:36;15;15;
74078;PMS5003;62437;51.544;-3.276;2022-12-07T12:26:01;20;20;
74078;PMS5003;62437;51.544;-3.276;2022-12-07T12:28:26;25;22;
74078;PMS5003;62437;51.544;-3.276;2022-12-07T12:33:18;20;20;
74078;PMS5003;62437;51.544;-3.276;2022-12-07T12:35:41;22;19;
74078;PMS5003;62437;51.544;-3.276;2022-12-07T12:40:38;22;19;
74078;PMS5003;62437;51.544;-3.276;2022-12-07T12:42:59;17;16;
74078;PMS5003;62437;51.544;-3.276;2022-12-07T12:45:25;16;15;
74078;PMS5003;62437;51.544;-3.276;2022-12-07T12:47:53;15;14;
74078;PMS5003;62437;51.544;-3.276;2022-12-07T12:50:17;16;16;
74078;PMS5003;62437;51.544;-3.276;2022-12-07T12:57:32;14;14;
74078;PMS5003;62437;51.544;-3.276;2022-12-07T12:59:57;16;16;
74078;PMS5003;62437;51.544;-3.276;2022-12-07T13:02:23;56;51;
74078;PMS5003;62437;51.544;-3.276;2022-12-07T13:04:51;26;25;
74078;PMS5003;62437;51.544;-3.276;2022-12-07T13:09:42;17;17;
74078;PMS5003;62437;51.544;-3.276;2022-12-07T13:12:11;15;14;
74078;PMS5003;62437;51.544;-3.276;2022-12-07T13:16:57;21;20;
74078;PMS5003;62437;51.544;-3.276;2022-12-07T13:21:48;19;17;
74078;PMS5003;62437;51.544;-3.276;2022-12-07T13:24:13;16;14;
74078;PMS5003;62437;51.544;-3.276;2022-12-07T13:26:41;16;16;
74078;PMS5003;62437;51.544;-3.276;2022-12-07T13:29:06;13;12;
74078;PMS5003;62437;51.544;-3.276;2022-12-07T13:31:32;10;10;
74078;PMS5003;62437;51.544;-3.276;2022-12-07T13:33:56;13;12;
74078;PMS5003;62437;51.544;-3.276;2022-12-07T13:36:23;15;15;
74078;PMS5003;62437;51.544;-3.276;2022-12-07T13:38:50;16;14;
74078;PMS5003;62437;51.544;-3.276;2022-12-07T13:41:15;18;15;
74078;PMS5003;62437;51.544;-3.276;2022-12-07T13:43:44;13;10;
74078;PMS5003;62437;51.544;-3.276;2022-12-07T13:46:06;12;10;
74078;PMS5003;62437;51.544;-3.276;2022-12-07T13:48:31;14;14;
74078;PMS5003;62437;51.544;-3.276;2022-12-07T13:50:57;12;12;
74078;PMS5003;62437;51.544;-3.276;2022-12-07T13:53:22;14;13;
74078;PMS5003;62437;51.544;-3.276;2022-12-07T13:55:48;13;13;
74078;PMS5003;62437;51.544;-3.276;2022-12-07T13:58:13;15;13;
74078;PMS5003;62437;51.544;-3.276;2022-12-07T14:00:39;18;16;
74078;PMS5003;62437;51.544;-3.276;2022-12-07T14:03:04;15;15;
74078;PMS5003;62437;51.544;-3.276;2022-12-07T14:05:30;19;18;
74078;PMS5003;62437;51.544;-3.276;2022-12-07T14:07:56;15;15;
74078;PMS5003;62437;51.544;-3.276;2022-12-07T14:10:23;10;10;
74078;PMS5003;62437;51.544;-3.276;2022-12-07T14:12:47;15;15;
74078;PMS5003;62437;51.544;-3.276;2022-12-07T14:15:15;16;15;
74078;PMS5003;62437;51.544;-3.276;2022-12-07T14:22:31;15;13;
74078;PMS5003;62437;51.544;-3.276;2022-12-07T14:25:00;14;14;
74078;PMS5003;62437;51.544;-3.276;2022-12-07T14:27:22;11;11;
74078;PMS5003;62437;51.544;-3.276;2022-12-07T14:29:48;15;14;
74078;PMS5003;62437;51.544;-3.276;2022-12-07T14:32:21;4;3;
74078;PMS5003;62437;51.544;-3.276;2022-12-07T14:34:39;7;7;
74078;PMS5003;62437;51.544;-3.276;2022-12-07T14:37:07;10;10;
74078;PMS5003;62437;51.544;-3.276;2022-12-07T14:39:30;9;8;
74078;PMS5003;62437;51.544;-3.276;2022-12-07T14:41:56;8;8;
74078;PMS5003;62437;51.544;-3.276;2022-12-07T14:44:22;11;11;
74078;PMS5003;62437;51.544;-3.276;2022-12-07T14:46:47;16;15;
74078;PMS5003;62437;51.544;-3.276;2022-12-07T14:49:12;9;8;
74078;PMS5003;62437;51.544;-3.276;2022-12-07T14:51:38;7;7;
74078;PMS5003;62437;51.544;-3.276;2022-12-07T14:54:04;9;8;
74078;PMS5003;62437;51.544;-3.276;2022-12-07T14:56:29;7;5;
74078;PMS5003;62437;51.544;-3.276;2022-12-07T14:58:55;9;8;
74078;PMS5003;62437;51.544;-3.276;2022-12-07T15:01:20;7;7;
74078;PMS5003;62437;51.544;-3.276;2022-12-07T15:03:46;9;7;
74078;PMS5003;62437;51.544;-3.276;2022-12-07T15:06:13;7;7;
74078;PMS5003;62437;51.544;-3.276;2022-12-07T15:08:38;9;9;
74078;PMS5003;62437;51.544;-3.276;2022-12-07T15:11:04;7;7;
74078;PMS5003;62437;51.544;-3.276;2022-12-07T15:13:29;10;10;
74078;PMS5003;62437;51.544;-3.276;2022-12-07T15:15:55;8;7;
74078;PMS5003;62437;51.544;-3.276;2022-12-07T15:18:21;5;4;
74078;PMS5003;62437;51.544;-3.276;2022-12-07T15:20:47;9;6;
74078;PMS5003;62437;51.544;-3.276;2022-12-07T15:23:13;6;6;
74078;PMS5003;62437;51.544;-3.276;2022-12-07T15:25:40;7;7;
74078;PMS5003;62437;51.544;-3.276;2022-12-07T15:28:04;4;4;
74078;PMS5003;62437;51.544;-3.276;2022-12-07T15:30:30;8;7;
74078;PMS5003;62437;51.544;-3.276;2022-12-07T15:32:56;6;6;
74078;PMS5003;62437;51.544;-3.276;2022-12-07T15:35:21;7;7;
74078;PMS5003;62437;51.544;-3.276;2022-12-07T15:37:47;6;6;
74078;PMS5003;62437;51.544;-3.276;2022-12-07T15:40:13;6;6;
74078;PMS5003;62437;51.544;-3.276;2022-12-07T15:42:39;6;6;
74078;PMS5003;62437;51.544;-3.276;2022-12-07T15:45:06;6;6;
74078;PMS5003;62437;51.544;-3.276;2022-12-07T15:47:31;4;4;
74078;PMS5003;62437;51.544;-3.276;2022-12-07T15:49:56;4;4;
74078;PMS5003;62437;51.544;-3.276;2022-12-07T15:52:22;4;4;
74078;PMS5003;62437;51.544;-3.276;2022-12-07T15:54:48;7;6;
74078;PMS5003;62437;51.544;-3.276;2022-12-07T15:57:14;4;3;
74078;PMS5003;62437;51.544;-3.276;2022-12-07T15:59:39;9;9;
74078;PMS5003;62437;51.544;-3.276;2022-12-07T16:02:04;7;6;
74078;PMS5003;62437;51.544;-3.276;2022-12-07T16:04:30;3;3;
74078;PMS5003;62437;51.544;-3.276;2022-12-07T16:06:56;3;3;
74078;PMS5003;62437;51.544;-3.276;2022-12-07T16:09:21;4;4;
74078;PMS5003;62437;51.544;-3.276;2022-12-07T16:11:47;4;4;
74078;PMS5003;62437;51.544;-3.276;2022-12-07T16:14:13;4;4;
74078;PMS5003;62437;51.544;-3.276;2022-12-07T16:16:39;2;2;
74078;PMS5003;62437;51.544;-3.276;2022-12-07T16:19:05;4;4;
74078;PMS5003;62437;51.544;-3.276;2022-12-07T16:21:30;3;3;
74078;PMS5003;62437;51.544;-3.276;2022-12-07T16:23:57;4;4;
74078;PMS5003;62437;51.544;-3.276;2022-12-07T16:26:22;4;3;
74078;PMS5003;62437;51.544;-3.276;2022-12-07T16:28:48;4;4;
74078;PMS5003;62437;51.544;-3.276;2022-12-07T16:31:14;7;6;
74078;PMS5003;62437;51.544;-3.276;2022-12-07T16:33:40;4;4;
74078;PMS5003;62437;51.544;-3.276;2022-12-07T16:36:05;4;4;